This is the latest recevied weather packets stored in our database for station/object IN3BXS. If no packets are shown the sender has not sent any weather packets the latest 10 day(s).
| Time | Temp. | Humidity | Pressure | Rain* | Wind** | Luminosity | Snow |
|---|---|---|---|---|---|---|---|
| 1777658425 | 11.11° C | 23% | 1020.7 hPa | 0 mm | - | - | - |
| 1777656625 | 12.22° C | 23% | 1020.3 hPa | 0 mm | - | - | - |
| 1777654826 | 12.78° C | 20% | 1020 hPa | 0 mm | - | - | - |
| 1777653025 | 13.33° C | 22% | 1019.7 hPa | 0 mm | - | - | - |
| 1777651226 | 13.89° C | 20% | 1019.5 hPa | 0 mm | - | - | - |
| 1777649425 | 14.44° C | 19% | 1019.3 hPa | 0 mm | - | - | - |
| 1777647626 | 15° C | 22% | 1019.1 hPa | 0 mm | - | - | - |
| 1777645826 | 15° C | 22% | 1018.9 hPa | 0 mm | - | - | - |
| 1777644025 | 15.56° C | 22% | 1018.8 hPa | 0 mm | - | - | - |
| 1777642225 | 15.56° C | 22% | 1018.7 hPa | 0 mm | - | - | - |
| 1777640425 | 15.56° C | 22% | 1019.8 hPa | 0 mm | - | - | - |
| 1777638625 | 15.56° C | 22% | 1019.9 hPa | 0 mm | - | - | - |
| 1777636825 | 15.56° C | 22% | 1020 hPa | 0 mm | - | - | - |
| 1777635025 | 15° C | 22% | 1020.2 hPa | 0 mm | - | - | - |
| 1777633226 | 14.44° C | 22% | 1020.4 hPa | 0 mm | - | - | - |
| 1777631426 | 13.33° C | 22% | 1021.9 hPa | 0 mm | - | - | - |
| 1777629627 | 14.44° C | 22% | 1021.6 hPa | 0 mm | - | - | - |
| 1777627826 | 13.33° C | 22% | 1021.9 hPa | 0 mm | - | - | - |
| 1777626027 | 11.67° C | 23% | 1022.8 hPa | 0 mm | - | - | - |
| 1777624227 | 10.56° C | 24% | 1023.2 hPa | 0 mm | - | - | - |
| 1777622426 | 9.44° C | 26% | 1023.6 hPa | 0 mm | - | - | - |
| 1777620627 | 8.89° C | 26% | 1023.9 hPa | 0 mm | - | - | - |
| 1777618826 | 8.33° C | 27% | 1024.2 hPa | 0 mm | - | - | - |
| 1777617027 | 7.22° C | 29% | 1023.6 hPa | 0 mm | - | - | - |
| 1777615227 | 6.11° C | 33% | 1024.1 hPa | 0 mm | - | - | - |
* Rain latest hour (hover to see other rain measurements)
** Current wind speed in m/s (hover to see current wind gust speed)